Time;durP1;ratioP1;P1;durP2;ratioP2;P2;SDS_P1;SDS_P2;PMS_P1;PMS_P2;Temp;Humidity;BMP_temperature;BMP_pressure;BME280_temperature;BME280_humidity;BME280_pressure;Samples;Min_cycle;Max_cycle;Signal;HPM_P1;HPM_P2
2022/03/22 00:00:29;;;;;;;16.45;9.80;;;10.10;98.90;;;;;;5074817;28;20017;-80
2022/03/22 00:02:55;;;;;;;18.17;9.85;;;10.10;99.00;;;;;;5090923;28;20029;-80
2022/03/22 00:05:22;;;;;;;18.08;10.10;;;10.10;98.90;;;;;;5090414;28;20032;-81
2022/03/22 00:07:48;;;;;;;16.52;10.20;;;10.10;98.90;;;;;;5073437;28;20027;-80
2022/03/22 00:10:14;;;;;;;15.52;9.10;;;10.10;98.90;;;;;;5074722;28;20035;-80
2022/03/22 00:12:41;;;;;;;14.25;9.50;;;10.10;98.80;;;;;;5090238;28;20028;-80
2022/03/22 00:15:08;;;;;;;14.25;9.25;;;10.00;98.80;;;;;;5090146;28;20024;-80
2022/03/22 00:17:34;;;;;;;13.63;9.25;;;10.10;98.70;;;;;;5090087;28;20036;-80
2022/03/22 00:20:00;;;;;;;15.55;9.13;;;10.00;98.80;;;;;;5092180;28;20036;-80
2022/03/22 00:22:27;;;;;;;16.10;9.73;;;10.00;98.80;;;;;;5076562;28;20032;-80
2022/03/22 00:24:53;;;;;;;13.98;9.43;;;10.00;98.70;;;;;;5076513;28;20080;-80
2022/03/22 00:27:19;;;;;;;13.38;9.45;;;10.00;98.80;;;;;;5076346;28;20028;-80
2022/03/22 00:29:45;;;;;;;14.05;9.55;;;10.00;98.80;;;;;;5094494;28;20034;-80
2022/03/22 00:32:11;;;;;;;14.88;9.50;;;10.00;98.70;;;;;;5076257;28;20447;-80
2022/03/22 00:34:46;;;;;;;14.23;9.43;;;10.00;98.70;;;;;;5094670;28;20048;-80
2022/03/22 00:37:17;;;;;;;17.02;9.30;;;10.00;98.80;;;;;;5076239;28;20052;-80
2022/03/22 00:39:43;;;;;;;14.13;9.43;;;9.90;98.70;;;;;;5076179;28;20052;-80
2022/03/22 00:42:10;;;;;;;14.30;9.13;;;9.90;98.70;;;;;;5076109;28;20077;-80
2022/03/22 00:44:38;;;;;;;15.48;9.27;;;9.90;99.90;;;;;;5094472;28;20432;-80
2022/03/22 00:47:07;;;;;;;14.63;8.93;;;10.00;99.90;;;;;;5075978;28;20043;-80
2022/03/22 00:49:33;;;;;;;15.00;9.30;;;9.90;99.90;;;;;;5075848;28;20131;-80
2022/03/22 00:52:01;;;;;;;15.00;9.98;;;10.00;99.90;;;;;;5094088;28;20017;-80
2022/03/22 00:54:28;;;;;;;14.88;9.27;;;9.90;99.10;;;;;;5093983;28;20020;-80
2022/03/22 00:56:54;;;;;;;13.77;9.02;;;9.80;98.60;;;;;;5075840;28;20039;-80
2022/03/22 01:02:05;;;;;;;11.98;8.80;;;9.80;98.70;;;;;;5094505;28;20391;-80
2022/03/22 01:04:31;;;;;;;14.80;8.43;;;9.80;98.70;;;;;;5075653;28;20020;-80
2022/03/22 01:06:56;;;;;;;16.30;9.35;;;9.80;98.50;;;;;;5075634;28;20028;-80
2022/03/22 01:09:22;;;;;;;13.07;8.57;;;9.80;98.90;;;;;;5075571;28;20024;-80
2022/03/22 01:11:47;;;;;;;13.48;9.15;;;9.80;98.50;;;;;;5093821;28;20028;-80
2022/03/22 01:14:13;;;;;;;14.40;9.27;;;9.70;98.50;;;;;;5075558;28;20043;-80
2022/03/22 01:16:39;;;;;;;16.80;9.15;;;9.70;98.50;;;;;;5075469;28;20046;-80
2022/03/22 01:19:06;;;;;;;14.50;9.13;;;9.70;98.50;;;;;;5093615;28;20024;-80
2022/03/22 01:21:32;;;;;;;14.25;9.30;;;9.70;98.50;;;;;;5075201;28;20059;-80
2022/03/22 01:24:02;;;;;;;13.38;9.25;;;9.70;98.40;;;;;;5093522;28;20103;-80
2022/03/22 01:26:28;;;;;;;12.68;8.65;;;9.70;98.40;;;;;;5093550;28;20030;-80
2022/03/22 01:28:55;;;;;;;15.30;8.90;;;9.70;98.40;;;;;;5093435;28;20024;-80
2022/03/22 01:31:20;;;;;;;12.40;8.57;;;9.70;98.40;;;;;;5075305;28;20058;-80
2022/03/22 01:33:46;;;;;;;16.45;9.20;;;9.60;98.40;;;;;;5093412;28;20024;-80
2022/03/22 01:36:12;;;;;;;16.60;9.50;;;9.70;98.40;;;;;;5093377;28;20062;-79
2022/03/22 01:38:37;;;;;;;12.48;9.10;;;9.70;98.40;;;;;;5075225;28;20024;-79
2022/03/22 01:41:03;;;;;;;15.13;9.20;;;9.60;98.40;;;;;;5093302;28;20548;-79
2022/03/22 01:43:29;;;;;;;14.02;9.15;;;9.60;98.40;;;;;;5093297;28;20024;-79
2022/03/22 01:45:54;;;;;;;12.55;8.77;;;9.60;98.40;;;;;;5075199;28;20031;-79
2022/03/22 01:48:20;;;;;;;15.82;9.57;;;9.60;98.40;;;;;;5093179;28;20024;-79
2022/03/22 01:50:46;;;;;;;13.07;8.73;;;9.60;98.70;;;;;;5093216;28;20107;-80
2022/03/22 01:53:12;;;;;;;13.80;9.48;;;9.50;98.40;;;;;;5075048;28;20024;-80
2022/03/22 01:55:39;;;;;;;15.93;8.70;;;9.60;98.40;;;;;;5093193;28;20020;-80
2022/03/22 01:58:04;;;;;;;14.50;9.05;;;9.50;98.30;;;;;;5093147;28;20391;-79
2022/03/22 02:00:30;;;;;;;14.85;8.88;;;9.50;98.30;;;;;;5075043;28;20020;-79
2022/03/22 02:05:51;;;;;;;18.20;9.32;;;9.50;98.30;;;;;;5094020;28;20055;-79
2022/03/22 02:08:18;;;;;;;16.98;9.30;;;9.50;98.30;;;;;;5093288;28;20024;-81
2022/03/22 02:10:44;;;;;;;16.33;8.65;;;9.50;98.30;;;;;;5074895;28;20024;-79
2022/03/22 02:13:10;;;;;;;16.77;9.15;;;9.50;98.30;;;;;;5093041;28;20023;-80
2022/03/22 02:15:36;;;;;;;15.18;8.85;;;9.50;98.40;;;;;;5093193;28;20032;-80
2022/03/22 02:18:03;;;;;;;14.73;9.20;;;9.50;98.30;;;;;;5093464;28;20020;-79
2022/03/22 02:20:30;;;;;;;14.65;8.93;;;9.40;98.30;;;;;;5096706;28;20044;-80
2022/03/22 02:23:04;;;;;;;12.82;8.18;;;9.40;98.30;;;;;;5078764;28;20169;-79
2022/03/22 02:25:30;;;;;;;14.50;8.77;;;9.40;98.30;;;;;;5078763;28;20024;-80
2022/03/22 02:27:56;;;;;;;15.23;9.18;;;9.40;98.30;;;;;;5078619;28;20020;-80
2022/03/22 02:30:22;;;;;;;17.35;9.82;;;9.40;98.30;;;;;;5096805;28;20030;-81
2022/03/22 02:32:56;;;;;;;13.93;9.55;;;9.40;98.70;;;;;;5097036;28;20437;-81
2022/03/22 02:35:23;;;;;;;12.07;8.30;;;9.40;98.30;;;;;;5078634;28;20020;-81
2022/03/22 02:37:50;;;;;;;13.02;8.88;;;9.30;98.20;;;;;;5096934;28;20250;-81
2022/03/22 02:40:16;;;;;;;13.85;8.68;;;9.30;98.30;;;;;;5078466;28;20547;-81
2022/03/22 02:42:49;;;;;;;17.15;9.30;;;9.30;98.30;;;;;;5096596;28;20099;-81
2022/03/22 02:45:15;;;;;;;13.40;8.53;;;9.30;98.30;;;;;;5078346;28;20032;-81
2022/03/22 02:47:42;;;;;;;13.80;8.45;;;9.30;98.20;;;;;;5096549;28;20365;-81
2022/03/22 02:50:09;;;;;;;15.02;9.35;;;9.30;98.20;;;;;;5078240;28;20082;-81
2022/03/22 02:52:35;;;;;;;17.00;8.95;;;9.30;98.20;;;;;;5078200;28;20020;-81
2022/03/22 02:55:03;;;;;;;13.73;8.93;;;9.30;98.30;;;;;;5078148;28;20051;-81
2022/03/22 02:57:28;;;;;;;18.77;9.15;;;9.30;99.90;;;;;;5096255;28;20467;-81
2022/03/22 02:59:54;;;;;;;12.90;8.88;;;9.40;99.90;;;;;;5078066;28;20078;-81
2022/03/22 03:02:19;;;;;;;13.80;8.77;;;9.30;99.90;;;;;;5096221;28;20072;-81
2022/03/22 03:04:45;;;;;;;14.02;8.80;;;9.30;99.90;;;;;;5078061;28;20024;-82
2022/03/22 03:07:11;;;;;;;14.30;9.02;;;9.30;99.90;;;;;;5096150;28;20497;-81
2022/03/22 03:09:36;;;;;;;12.93;9.52;;;9.30;99.90;;;;;;5077845;28;20024;-81
2022/03/22 03:12:02;;;;;;;15.88;9.05;;;9.30;99.90;;;;;;5096066;28;20031;-81
2022/03/22 03:14:40;;;;;;;14.50;9.30;;;9.30;99.90;;;;;;5077742;28;20073;-81
2022/03/22 03:17:11;;;;;;;16.05;10.50;;;9.30;99.90;;;;;;5077871;28;20025;-81
2022/03/22 03:19:37;;;;;;;14.65;8.98;;;9.30;99.90;;;;;;5095850;28;20420;-81
2022/03/22 03:22:03;;;;;;;14.70;9.10;;;9.30;99.90;;;;;;5095699;28;20048;-81
2022/03/22 03:24:30;;;;;;;15.05;9.43;;;9.20;99.90;;;;;;5077687;28;20387;-81
2022/03/22 03:26:56;;;;;;;16.58;9.05;;;9.30;99.90;;;;;;5077632;28;20378;-81
2022/03/22 03:29:22;;;;;;;14.65;9.93;;;9.20;99.90;;;;;;5095466;28;20461;-81
2022/03/22 03:31:48;;;;;;;15.10;9.20;;;9.20;99.90;;;;;;5095013;28;20020;-81
2022/03/22 03:34:14;;;;;;;14.57;9.23;;;9.20;99.90;;;;;;5095655;28;20031;-81
2022/03/22 03:36:40;;;;;;;15.32;8.95;;;9.20;99.90;;;;;;5077409;28;20074;-81
2022/03/22 03:39:06;;;;;;;12.02;8.60;;;9.20;99.90;;;;;;5077412;28;20020;-81
2022/03/22 03:47:11;;;;;;;14.18;9.23;;;9.20;99.90;;;;;;5096005;28;20085;-81
2022/03/22 03:49:48;;;;;;;17.80;9.60;;;9.20;99.90;;;;;;5095572;28;20095;-81
2022/03/22 03:52:15;;;;;;;15.77;9.13;;;9.20;99.90;;;;;;5095276;28;20024;-81
2022/03/22 03:54:42;;;;;;;14.48;9.80;;;9.10;99.90;;;;;;5077169;28;20054;-81
2022/03/22 03:57:08;;;;;;;12.88;8.80;;;9.10;99.90;;;;;;5077080;28;20433;-81
2022/03/22 03:59:36;;;;;;;18.05;9.73;;;9.10;99.90;;;;;;5076931;28;20036;-81
2022/03/22 04:02:04;;;;;;;15.30;9.18;;;9.10;99.90;;;;;;5095052;28;20047;-81
2022/03/22 04:04:30;;;;;;;14.45;9.38;;;9.10;99.90;;;;;;5076929;28;20062;-81
2022/03/22 04:06:55;;;;;;;14.02;9.07;;;9.10;99.90;;;;;;5076805;28;20407;-81
2022/03/22 04:09:21;;;;;;;14.25;9.15;;;9.10;99.90;;;;;;5076697;28;20021;-81
2022/03/22 04:11:47;;;;;;;16.08;9.43;;;9.10;99.90;;;;;;5076650;28;20046;-81
2022/03/22 04:14:13;;;;;;;13.43;9.45;;;9.10;99.90;;;;;;5076848;28;20027;-80
2022/03/22 04:16:40;;;;;;;16.55;9.02;;;9.10;99.90;;;;;;5076579;28;20027;-81
2022/03/22 04:19:07;;;;;;;12.43;9.07;;;9.10;99.90;;;;;;5076486;28;20178;-81
2022/03/22 04:21:34;;;;;;;13.10;8.70;;;9.10;99.90;;;;;;5094483;28;20097;-81
2022/03/22 04:24:06;;;;;;;17.52;8.80;;;9.00;97.90;;;;;;5076461;28;20054;-81
2022/03/22 04:26:33;;;;;;;14.25;9.10;;;8.90;97.80;;;;;;5076669;28;20398;-80
2022/03/22 04:32:41;;;;;;;13.38;9.43;;;8.90;97.80;;;;;;5095156;28;20034;-80
2022/03/22 04:34:42;;;;;;;15.88;9.05;;;8.90;97.80;;;;;;5094235;28;20028;-81
2022/03/22 04:37:12;;;;;;;17.65;9.35;;;8.90;97.80;;;;;;5076079;28;20138;-80
2022/03/22 04:39:40;;;;;;;17.38;9.55;;;8.90;98.20;;;;;;5076238;28;20031;-80
2022/03/22 04:42:06;;;;;;;12.52;8.77;;;8.90;97.80;;;;;;5075766;28;20071;-80
2022/03/22 04:44:33;;;;;;;13.65;8.85;;;8.80;97.80;;;;;;5094512;28;20024;-81
2022/03/22 04:46:59;;;;;;;12.05;8.45;;;8.80;98.10;;;;;;5075934;28;20025;-80
2022/03/22 04:49:26;;;;;;;15.55;9.15;;;8.80;97.80;;;;;;5075913;28;20429;-81
2022/03/22 04:57:22;;;;;;;;;;;8.80;97.80;;;;;;5095159;28;20030;-80
2022/03/22 04:59:48;;;;;;;18.58;10.02;;;8.80;97.80;;;;;;5094015;28;19911;-81
2022/03/22 05:02:15;;;;;;;14.30;9.38;;;8.80;97.80;;;;;;5075723;28;20371;-81
2022/03/22 05:04:41;;;;;;;18.65;10.13;;;8.80;97.80;;;;;;5075708;28;20021;-81
2022/03/22 05:07:07;;;;;;;15.90;8.82;;;8.80;97.90;;;;;;5094151;28;20031;-80
2022/03/22 05:09:33;;;;;;;13.60;8.80;;;8.80;97.90;;;;;;5093793;28;20110;-81
2022/03/22 05:11:59;;;;;;;15.48;9.95;;;8.70;97.80;;;;;;5075607;28;20031;-81
2022/03/22 05:14:25;;;;;;;14.30;9.40;;;8.80;97.90;;;;;;5075581;28;20020;-81
2022/03/22 05:16:51;;;;;;;16.27;9.85;;;8.70;97.90;;;;;;5075484;28;20482;-81
2022/03/22 05:19:18;;;;;;;16.63;10.23;;;8.80;97.90;;;;;;5075500;28;20032;-81
2022/03/22 05:21:44;;;;;;;15.38;9.93;;;8.70;97.90;;;;;;5075242;28;20054;-81
2022/03/22 05:24:10;;;;;;;14.55;9.25;;;8.70;97.90;;;;;;5075645;28;20042;-80
2022/03/22 05:26:36;;;;;;;15.00;9.65;;;8.70;97.90;;;;;;5075326;28;20051;-80
2022/03/22 05:29:05;;;;;;;15.45;9.63;;;8.70;97.90;;;;;;5075236;28;20050;-80
2022/03/22 05:31:32;;;;;;;16.60;9.50;;;8.70;97.90;;;;;;5076060;28;20020;-80
2022/03/22 05:33:58;;;;;;;15.30;9.65;;;8.70;97.90;;;;;;5075283;28;20074;-81
2022/03/22 05:36:24;;;;;;;13.90;9.50;;;8.60;97.90;;;;;;5093680;28;20024;-80
2022/03/22 05:38:52;;;;;;;16.95;10.00;;;8.70;97.90;;;;;;5093346;28;20027;-80
2022/03/22 05:41:17;;;;;;;15.10;9.38;;;8.60;97.90;;;;;;5093365;28;20020;-80
2022/03/22 05:43:43;;;;;;;19.25;10.45;;;8.60;97.90;;;;;;5075207;28;20069;-81
2022/03/22 05:46:09;;;;;;;14.93;9.02;;;8.60;97.90;;;;;;5075236;28;20036;-81
2022/03/22 05:48:38;;;;;;;14.38;9.20;;;8.60;97.90;;;;;;5075050;28;20115;-80
2022/03/22 05:51:04;;;;;;;15.10;10.02;;;8.60;97.90;;;;;;5093195;28;20023;-81
2022/03/22 05:53:30;;;;;;;17.92;10.18;;;8.60;98.00;;;;;;5092519;28;20024;-80
2022/03/22 05:55:56;;;;;;;14.95;8.73;;;8.60;97.90;;;;;;5075019;28;20031;-80
2022/03/22 05:58:22;;;;;;;14.00;9.57;;;8.60;97.90;;;;;;5093199;28;20483;-81
2022/03/22 06:00:48;;;;;;;12.52;9.07;;;8.60;98.00;;;;;;5075101;28;20139;-80
2022/03/22 06:03:14;;;;;;;14.18;10.00;;;8.60;98.00;;;;;;5074915;28;20036;-80
2022/03/22 06:05:42;;;;;;;17.00;9.85;;;8.60;98.00;;;;;;5093076;28;20028;-80
2022/03/22 06:08:08;;;;;;;14.13;8.98;;;8.60;98.00;;;;;;5074885;28;20437;-80
2022/03/22 06:10:34;;;;;;;15.45;9.50;;;8.60;98.00;;;;;;5075015;28;20088;-80
2022/03/22 06:13:00;;;;;;;15.43;9.30;;;8.60;98.00;;;;;;5074937;28;20028;-80
2022/03/22 06:15:31;;;;;;;16.55;9.20;;;8.70;98.00;;;;;;5092980;28;20024;-80
2022/03/22 06:18:09;;;;;;;14.70;9.45;;;8.70;98.00;;;;;;5093042;28;20100;-80
2022/03/22 06:20:42;;;;;;;14.07;9.32;;;8.70;98.00;;;;;;5074667;28;20040;-81
2022/03/22 06:23:10;;;;;;;13.52;8.85;;;8.70;98.00;;;;;;5074717;28;20020;-81
2022/03/22 06:25:38;;;;;;;14.43;9.73;;;8.70;98.00;;;;;;5074719;28;20046;-80
2022/03/22 06:28:05;;;;;;;13.05;9.68;;;8.70;97.90;;;;;;5074645;28;20024;-80
2022/03/22 06:30:31;;;;;;;15.80;9.43;;;8.80;98.00;;;;;;5074645;28;20040;-80
2022/03/22 06:33:00;;;;;;;13.98;9.43;;;8.80;98.00;;;;;;5075801;28;20371;-80
2022/03/22 06:35:28;;;;;;;16.02;8.95;;;8.80;98.00;;;;;;5074707;28;20021;-80
2022/03/22 06:37:54;;;;;;;15.35;9.27;;;8.80;98.00;;;;;;5093080;28;20031;-81
2022/03/22 06:40:23;;;;;;;13.00;8.85;;;8.90;98.00;;;;;;5092936;28;20023;-80
2022/03/22 06:42:49;;;;;;;13.68;9.38;;;8.90;98.00;;;;;;5092893;28;20039;-80
2022/03/22 06:45:15;;;;;;;15.35;9.82;;;8.90;98.00;;;;;;5092912;28;20035;-80
2022/03/22 06:47:42;;;;;;;15.35;9.13;;;9.00;98.00;;;;;;5074761;28;20032;-80
2022/03/22 06:50:12;;;;;;;12.10;8.48;;;9.00;98.00;;;;;;5092563;28;20020;-80
2022/03/22 06:52:38;;;;;;;15.30;9.70;;;9.10;98.10;;;;;;5092664;28;20448;-80
2022/03/22 06:55:05;;;;;;;14.65;9.25;;;9.10;98.10;;;;;;5074573;28;20055;-80
2022/03/22 06:57:31;;;;;;;15.65;8.60;;;9.20;98.10;;;;;;5074497;28;20593;-80
2022/03/22 06:59:58;;;;;;;12.02;8.88;;;9.20;98.10;;;;;;5092533;28;20086;-80
2022/03/22 07:02:24;;;;;;;14.32;9.40;;;9.20;97.90;;;;;;5092638;28;20422;-80
2022/03/22 07:04:50;;;;;;;16.00;9.40;;;9.30;97.80;;;;;;5094380;28;20038;-80
2022/03/22 07:07:15;;;;;;;16.05;8.80;;;9.30;97.80;;;;;;5077995;28;20024;-80
2022/03/22 07:09:42;;;;;;;12.38;8.90;;;9.40;97.80;;;;;;5077922;28;20111;-80
2022/03/22 07:12:08;;;;;;;13.80;8.68;;;9.40;97.70;;;;;;5096031;28;20495;-80
2022/03/22 07:14:35;;;;;;;15.95;9.27;;;9.40;98.00;;;;;;5077871;28;20027;-80
2022/03/22 07:17:01;;;;;;;15.07;8.75;;;9.50;97.70;;;;;;5096017;28;20028;-80
2022/03/22 07:19:26;;;;;;;13.48;8.70;;;9.50;97.60;;;;;;5077753;28;20077;-80
2022/03/22 07:21:52;;;;;;;14.57;8.68;;;9.60;97.70;;;;;;5095709;28;20048;-80
2022/03/22 07:24:18;;;;;;;14.20;8.10;;;9.60;97.70;;;;;;5077782;28;20062;-80
2022/03/22 07:26:45;;;;;;;13.35;9.27;;;9.60;97.60;;;;;;5077674;28;20032;-80
2022/03/22 07:29:13;;;;;;;13.85;8.68;;;9.70;97.70;;;;;;5095649;28;20017;-80
2022/03/22 07:31:39;;;;;;;13.13;8.43;;;9.70;97.70;;;;;;5095629;28;20020;-80
2022/03/22 07:34:15;;;;;;;12.68;8.40;;;9.70;97.70;;;;;;5077487;28;20384;-80
2022/03/22 07:36:41;;;;;;;12.02;8.88;;;9.80;97.70;;;;;;5077488;28;20020;-80
2022/03/22 07:39:07;;;;;;;19.95;9.07;;;9.80;97.70;;;;;;5077424;28;20117;-81
2022/03/22 07:41:34;;;;;;;16.13;9.15;;;9.90;97.70;;;;;;5095403;28;20074;-80
2022/03/22 07:44:01;;;;;;;11.95;8.32;;;9.90;97.70;;;;;;5076996;28;20046;-80
2022/03/22 07:46:27;;;;;;;14.77;8.43;;;9.90;97.70;;;;;;5095259;28;20364;-80
2022/03/22 07:48:54;;;;;;;15.45;8.25;;;10.00;97.70;;;;;;5077003;28;20366;-80
2022/03/22 07:54:04;;;;;;;12.20;7.57;;;10.00;97.70;;;;;;5095791;28;20035;-80
2022/03/22 07:56:30;;;;;;;16.92;9.13;;;10.10;97.70;;;;;;5095066;28;20059;-80
2022/03/22 07:58:57;;;;;;;14.60;8.85;;;10.10;97.70;;;;;;5076908;28;20119;-80
2022/03/22 08:01:24;;;;;;;11.93;8.43;;;10.20;98.10;;;;;;5076783;28;20032;-80
2022/03/22 08:03:50;;;;;;;14.35;8.80;;;10.20;97.70;;;;;;5094932;28;20364;-80
2022/03/22 08:06:16;;;;;;;14.10;8.45;;;10.20;97.70;;;;;;5076722;28;20098;-80
2022/03/22 08:08:44;;;;;;;16.75;8.70;;;10.30;97.70;;;;;;5094760;28;20024;-80
2022/03/22 08:11:10;;;;;;;13.15;8.15;;;10.30;97.70;;;;;;5076673;28;20437;-80
2022/03/22 08:13:37;;;;;;;15.73;8.82;;;10.40;97.70;;;;;;5076589;28;20096;-79
2022/03/22 08:16:07;;;;;;;14.15;9.30;;;10.40;97.70;;;;;;5075880;28;20016;-80
2022/03/22 08:18:33;;;;;;;11.70;7.97;;;10.40;97.70;;;;;;5094590;28;20039;-80
2022/03/22 08:20:59;;;;;;;14.43;8.52;;;10.50;97.60;;;;;;5076184;28;20078;-80
2022/03/22 08:23:24;;;;;;;16.17;8.50;;;10.50;97.60;;;;;;5094534;28;20035;-79
2022/03/22 08:25:51;;;;;;;12.38;8.15;;;10.50;97.60;;;;;;5094770;28;20498;-79
2022/03/22 08:28:18;;;;;;;12.93;8.07;;;10.60;97.60;;;;;;5094368;28;20020;-80
2022/03/22 08:30:44;;;;;;;11.95;8.77;;;10.60;97.60;;;;;;5076254;28;20020;-80
2022/03/22 08:33:12;;;;;;;15.05;8.32;;;10.70;97.70;;;;;;5094266;28;20048;-80
2022/03/22 08:35:47;;;;;;;14.50;8.02;;;10.70;97.60;;;;;;5094285;28;20028;-80
2022/03/22 08:38:19;;;;;;;12.35;7.95;;;10.70;97.60;;;;;;5094287;28;20409;-80
2022/03/22 08:40:45;;;;;;;14.57;7.88;;;10.80;97.60;;;;;;5094459;28;20385;-80
2022/03/22 08:43:11;;;;;;;11.90;7.75;;;10.80;97.50;;;;;;5076078;28;20028;-80
2022/03/22 08:45:37;;;;;;;14.52;8.07;;;10.80;97.40;;;;;;5094059;28;20027;-80
2022/03/22 08:48:09;;;;;;;12.65;7.88;;;10.90;97.40;;;;;;5076056;28;20021;-80
2022/03/22 08:50:36;;;;;;;13.85;8.85;;;10.90;97.20;;;;;;5093986;28;20024;-81
2022/03/22 08:53:02;;;;;;;12.20;8.27;;;11.00;97.10;;;;;;5093954;28;20383;-80
2022/03/22 08:55:29;;;;;;;14.77;8.02;;;11.00;97.10;;;;;;5093906;28;20016;-80
2022/03/22 08:57:55;;;;;;;14.23;8.82;;;11.10;96.90;;;;;;5075703;28;20514;-80
2022/03/22 09:00:22;;;;;;;15.10;8.00;;;11.10;96.90;;;;;;5093881;28;20024;-80
2022/03/22 09:02:49;;;;;;;14.20;8.43;;;11.10;96.80;;;;;;5093799;28;20440;-80
2022/03/22 09:08:01;;;;;;;14.45;8.65;;;11.20;96.40;;;;;;5094356;28;20054;-80
2022/03/22 09:10:29;;;;;;;14.13;8.73;;;11.20;96.50;;;;;;5075552;28;20395;-80
2022/03/22 09:12:55;;;;;;;11.70;8.43;;;11.30;96.50;;;;;;5093566;28;20024;-80
2022/03/22 09:15:23;;;;;;;13.43;8.57;;;11.30;96.50;;;;;;5075364;28;20036;-79
2022/03/22 09:17:49;;;;;;;12.32;8.48;;;11.30;96.40;;;;;;5093486;28;20051;-80
2022/03/22 09:20:15;;;;;;;12.68;8.23;;;11.40;96.50;;;;;;5071761;28;20511;-79
2022/03/22 09:22:48;;;;;;;13.00;8.55;;;11.40;96.30;;;;;;5088903;28;20398;-79
2022/03/22 09:25:14;;;;;;;13.65;8.57;;;11.40;96.30;;;;;;5089352;28;20032;-80
2022/03/22 09:27:41;;;;;;;13.90;8.48;;;11.50;96.30;;;;;;5088012;28;20036;-79
2022/03/22 09:30:07;;;;;;;14.05;9.18;;;11.50;96.20;;;;;;5073044;28;20099;-80
2022/03/22 09:32:34;;;;;;;15.25;9.70;;;11.50;96.00;;;;;;5073127;28;20027;-80
2022/03/22 09:35:00;;;;;;;14.60;9.25;;;11.60;95.70;;;;;;5073129;28;20024;-80
2022/03/22 09:37:27;;;;;;;13.25;8.45;;;11.60;96.00;;;;;;5088632;28;20023;-80
2022/03/22 09:39:54;;;;;;;12.38;8.73;;;11.60;96.00;;;;;;5073162;28;20021;-80
2022/03/22 09:42:19;;;;;;;15.73;9.60;;;11.60;96.10;;;;;;5073085;28;20031;-80
2022/03/22 09:44:51;;;;;;;15.85;9.38;;;11.70;95.90;;;;;;5073051;28;20017;-80
2022/03/22 09:47:16;;;;;;;14.80;8.98;;;11.70;95.80;;;;;;5072955;28;20051;-79
2022/03/22 09:49:43;;;;;;;13.75;8.77;;;11.80;95.70;;;;;;5073397;28;20452;-79
2022/03/22 09:52:10;;;;;;;13.32;8.23;;;11.80;95.80;;;;;;5072915;28;20495;-80
2022/03/22 09:54:38;;;;;;;12.00;8.55;;;11.80;95.70;;;;;;5088390;28;20021;-80
2022/03/22 09:57:05;;;;;;;14.27;9.10;;;11.80;95.70;;;;;;5072892;28;20087;-80
2022/03/22 09:59:34;;;;;;;16.20;9.10;;;11.90;95.60;;;;;;5088403;28;20502;-80
2022/03/22 10:02:01;;;;;;;17.65;10.02;;;12.00;95.50;;;;;;5073135;28;20467;-80
2022/03/22 10:04:39;;;;;;;15.02;8.85;;;11.90;95.50;;;;;;5072818;28;20056;-80
2022/03/22 10:07:06;;;;;;;13.57;9.52;;;11.90;95.50;;;;;;5088364;28;20032;-80
2022/03/22 10:09:39;;;;;;;13.18;9.23;;;12.00;95.50;;;;;;5088252;28;20032;-80
2022/03/22 10:12:10;;;;;;;13.57;9.00;;;12.00;95.40;;;;;;5088335;28;20028;-80
2022/03/22 10:14:41;;;;;;;19.30;8.98;;;12.10;95.50;;;;;;5088328;28;20028;-80
2022/03/22 10:17:20;;;;;;;11.85;8.80;;;12.10;95.60;;;;;;5088151;28;20126;-80
2022/03/22 10:19:50;;;;;;;20.70;9.80;;;12.10;95.50;;;;;;5073077;28;20025;-80
2022/03/22 10:22:21;;;;;;;15.25;9.70;;;12.10;95.40;;;;;;5093321;28;20032;-80
2022/03/22 10:24:49;;;;;;;15.00;9.60;;;12.10;95.40;;;;;;5093050;28;20074;-80
2022/03/22 10:27:41;;;;;;;17.15;9.13;;;12.10;95.50;;;;;;5093292;28;20017;-80
2022/03/22 10:30:08;;;;;;;15.45;9.77;;;12.10;95.50;;;;;;5070508;28;20036;-80
2022/03/22 10:32:37;;;;;;;16.17;8.85;;;12.20;95.50;;;;;;5074806;28;20073;-80
2022/03/22 10:35:22;;;;;;;13.35;8.50;;;12.20;95.40;;;;;;5074824;28;20047;-80
2022/03/22 10:37:50;;;;;;;14.82;8.93;;;12.20;95.40;;;;;;5074856;28;20024;-80
2022/03/22 10:40:34;;;;;;;15.45;9.57;;;12.30;95.20;;;;;;5095565;28;20063;-80
2022/03/22 10:43:08;;;;;;;13.43;9.52;;;12.30;95.10;;;;;;5096820;28;20425;-80
2022/03/22 10:45:43;;;;;;;20.55;9.25;;;12.30;95.00;;;;;;5078589;28;20081;-80
2022/03/22 10:48:09;;;;;;;12.50;8.82;;;12.30;94.70;;;;;;5096582;28;20464;-79
2022/03/22 10:50:38;;;;;;;15.23;9.32;;;12.40;94.80;;;;;;5096831;28;20060;-79
2022/03/22 10:53:05;;;;;;;15.20;8.57;;;12.40;94.80;;;;;;5078395;28;20031;-80
2022/03/22 10:55:31;;;;;;;12.73;9.15;;;12.40;94.70;;;;;;5078249;28;20024;-80
2022/03/22 10:57:59;;;;;;;15.05;8.90;;;12.40;94.60;;;;;;5096282;28;20024;-79
2022/03/22 11:00:26;;;;;;;13.43;8.70;;;12.50;94.50;;;;;;5077941;28;20509;-79
2022/03/22 11:02:55;;;;;;;15.23;8.73;;;12.50;94.50;;;;;;5077960;28;20066;-80
2022/03/22 11:05:23;;;;;;;14.15;8.15;;;12.50;94.60;;;;;;5077890;28;20028;-80
2022/03/22 11:07:52;;;;;;;16.38;8.85;;;12.60;94.50;;;;;;5077889;28;20024;-80
2022/03/22 11:10:30;;;;;;;12.27;8.95;;;12.50;94.00;;;;;;5095935;28;20027;-80
2022/03/22 11:13:00;;;;;;;12.90;8.95;;;12.60;94.30;;;;;;5095989;28;20024;-79
2022/03/22 11:15:28;;;;;;;14.35;8.95;;;12.60;94.30;;;;;;5096154;28;20044;-80
2022/03/22 11:17:55;;;;;;;12.55;8.98;;;12.60;94.40;;;;;;5095881;28;20058;-80
2022/03/22 11:20:23;;;;;;;16.63;9.90;;;12.70;94.40;;;;;;5095574;28;20048;-79
2022/03/22 11:22:54;;;;;;;16.88;9.65;;;12.70;94.40;;;;;;5077610;28;20501;-80
2022/03/22 11:25:34;;;;;;;12.70;9.38;;;12.70;94.20;;;;;;5095802;28;20095;-80
2022/03/22 11:28:08;;;;;;;15.93;9.32;;;12.70;94.00;;;;;;5077566;28;20052;-80
2022/03/22 11:30:36;;;;;;;15.25;9.48;;;12.80;94.10;;;;;;5095699;28;20600;-80
2022/03/22 11:35:52;;;;;;;16.48;9.50;;;12.80;93.90;;;;;;5096122;28;20039;-80
2022/03/22 11:38:44;;;;;;;16.05;9.65;;;12.80;93.80;;;;;;5077399;28;20035;-79
2022/03/22 11:44:36;;;;;;;15.63;9.68;;;12.80;93.80;;;;;;5095731;28;20026;-80
2022/03/22 11:47:05;;;;;;;18.40;9.70;;;;;;;;;;5033048;28;20082;-80
2022/03/22 11:49:47;;;;;;;14.55;9.65;;;13.00;93.60;;;;;;5077009;28;20024;-80
2022/03/22 11:52:13;;;;;;;17.73;10.18;;;13.00;93.80;;;;;;5094531;28;20026;-80
2022/03/22 11:54:39;;;;;;;14.60;9.40;;;13.00;93.60;;;;;;5095126;28;20430;-80
2022/03/22 11:57:06;;;;;;;13.85;8.60;;;13.00;93.90;;;;;;5076836;28;20024;-80
2022/03/22 11:59:41;;;;;;;16.05;9.93;;;13.00;93.80;;;;;;5076613;28;20054;-80
2022/03/22 12:02:13;;;;;;;15.40;9.75;;;13.00;93.70;;;;;;5094973;28;20027;-80
2022/03/22 12:04:51;;;;;;;16.05;8.88;;;13.00;93.70;;;;;;5076870;28;20024;-79
2022/03/22 12:07:28;;;;;;;18.17;10.65;;;13.00;93.70;;;;;;5094976;28;20024;-78
2022/03/22 12:10:11;;;;;;;14.27;9.38;;;13.10;93.60;;;;;;5094759;28;20024;-80
2022/03/22 12:12:37;;;;;;;16.55;9.75;;;13.10;93.60;;;;;;5094774;28;20016;-80
2022/03/22 12:15:06;;;;;;;12.80;9.43;;;13.10;93.70;;;;;;5094759;28;20024;-80
2022/03/22 12:17:32;;;;;;;16.65;10.07;;;13.10;93.80;;;;;;5076563;28;20021;-79
2022/03/22 12:20:00;;;;;;;16.10;10.07;;;13.10;93.70;;;;;;5094337;28;20035;-80
2022/03/22 12:22:27;;;;;;;15.23;9.40;;;13.10;93.60;;;;;;5076445;28;20454;-80
2022/03/22 12:24:56;;;;;;;15.77;9.82;;;13.20;93.50;;;;;;5094766;28;20020;-80
2022/03/22 12:27:23;;;;;;;15.23;10.18;;;13.20;93.50;;;;;;5094978;28;20070;-80
2022/03/22 12:29:48;;;;;;;16.00;9.60;;;13.20;93.50;;;;;;5094396;28;20050;-79
2022/03/22 12:32:15;;;;;;;14.68;10.20;;;13.30;93.40;;;;;;5076189;28;20046;-79
2022/03/22 12:34:41;;;;;;;12.93;9.63;;;13.20;93.50;;;;;;5076121;28;20440;-79
2022/03/22 12:37:08;;;;;;;19.38;9.98;;;13.30;93.50;;;;;;5094343;28;20052;-80
2022/03/22 12:39:38;;;;;;;13.07;9.45;;;13.30;93.30;;;;;;5094550;28;20383;-80
2022/03/22 12:42:05;;;;;;;14.48;9.05;;;13.30;93.40;;;;;;5094263;28;20024;-80
2022/03/22 12:44:31;;;;;;;13.45;9.20;;;13.30;93.50;;;;;;5094352;28;20017;-80
2022/03/22 12:46:57;;;;;;;13.57;8.85;;;13.40;93.10;;;;;;5075828;28;20036;-80
2022/03/22 12:49:25;;;;;;;17.02;9.48;;;13.60;95.20;;;;;;5075750;28;20037;-80
2022/03/22 12:51:50;;;;;;;16.25;9.50;;;13.60;93.00;;;;;;5075750;28;20020;-80
2022/03/22 12:54:17;;;;;;;13.20;9.65;;;13.50;92.70;;;;;;5094012;28;20490;-80
2022/03/22 12:56:48;;;;;;;17.35;10.02;;;13.70;92.90;;;;;;5094018;28;20013;-80
2022/03/22 12:59:21;;;;;;;16.92;10.18;;;13.90;93.80;;;;;;5075698;28;20024;-80
2022/03/22 13:01:57;;;;;;;16.17;9.75;;;14.00;99.90;;;;;;5075481;28;20046;-80
2022/03/22 13:04:29;;;;;;;11.90;8.82;;;13.90;92.40;;;;;;5075458;28;20024;-80
2022/03/22 13:07:00;;;;;;;19.35;9.80;;;14.10;95.30;;;;;;5075438;28;20055;-80
2022/03/22 13:12:13;;;;;;;13.18;9.18;;;14.30;92.20;;;;;;5094017;28;20027;-80
2022/03/22 13:17:30;;;;;;;13.88;9.23;;;14.30;92.00;;;;;;5094209;28;20391;-80
2022/03/22 13:19:58;;;;;;;14.20;10.10;;;14.30;91.90;;;;;;5075094;28;20024;-80
2022/03/22 13:22:26;;;;;;;15.07;9.93;;;14.30;92.10;;;;;;5093522;28;20467;-80